Time;durP1;ratioP1;P1;durP2;ratioP2;P2;SDS_P1;SDS_P2;PMS_P1;PMS_P2;Temp;Humidity;BMP_temperature;BMP_pressure;BME280_temperature;BME280_humidity;BME280_pressure;Samples;Min_cycle;Max_cycle;Signal;HPM_P1;HPM_P2
2021/11/18 00:00:19;;;;;;;10.10;9.20;;;6.50;99.90;;;;;;4993303;28;20454;-66
2021/11/18 00:02:45;;;;;;;12.43;8.77;;;6.50;99.90;;;;;;4985398;28;20547;-66
2021/11/18 00:05:13;;;;;;;10.27;9.33;;;6.60;99.90;;;;;;4996194;28;20480;-66
2021/11/18 00:07:47;;;;;;;10.73;9.73;;;6.70;99.90;;;;;;5000220;28;20179;-66
2021/11/18 00:10:17;;;;;;;9.90;9.00;;;6.80;99.90;;;;;;4993074;28;20460;-66
2021/11/18 00:12:44;;;;;;;10.93;9.80;;;6.70;99.90;;;;;;4994138;28;20442;-66
2021/11/18 00:15:10;;;;;;;10.60;8.77;;;6.80;99.90;;;;;;4993142;28;20466;-66
2021/11/18 00:17:36;;;;;;;9.17;8.30;;;6.80;99.90;;;;;;4992654;28;20452;-66
2021/11/18 00:20:05;;;;;;;9.40;8.53;;;6.70;99.90;;;;;;4992209;28;20547;-66
2021/11/18 00:22:31;;;;;;;9.43;8.37;;;6.60;99.90;;;;;;4997528;28;20601;-66
2021/11/18 00:24:56;;;;;;;14.43;9.10;;;6.60;99.90;;;;;;4991411;28;20465;-66
2021/11/18 00:27:22;;;;;;;9.53;8.63;;;6.60;99.90;;;;;;4990370;28;20262;-66
2021/11/18 00:29:49;;;;;;;12.70;9.33;;;6.50;99.90;;;;;;4992826;28;20294;-66
2021/11/18 00:32:14;;;;;;;10.83;9.73;;;6.50;99.90;;;;;;4993686;28;20446;-66
2021/11/18 00:34:40;;;;;;;9.87;8.87;;;6.50;99.90;;;;;;4993362;28;20475;-66
2021/11/18 00:37:05;;;;;;;10.40;9.33;;;6.60;99.90;;;;;;4997795;28;20187;-66
2021/11/18 00:39:31;;;;;;;9.53;8.27;;;6.60;99.90;;;;;;4993511;28;20246;-66
2021/11/18 00:41:56;;;;;;;9.53;8.60;;;6.60;99.90;;;;;;4992597;28;20187;-66
2021/11/18 00:44:22;;;;;;;14.87;8.67;;;6.60;99.90;;;;;;4992689;28;20258;-66
2021/11/18 00:46:47;;;;;;;9.70;8.70;;;6.60;99.90;;;;;;4991220;28;20258;-66
2021/11/18 00:49:13;;;;;;;10.10;8.97;;;6.50;99.90;;;;;;4992068;28;20731;-66
2021/11/18 00:51:40;;;;;;;10.80;9.70;;;6.50;99.90;;;;;;4992478;28;20179;-66
2021/11/18 00:54:07;;;;;;;12.43;9.77;;;6.50;99.90;;;;;;4992362;28;20238;-66
2021/11/18 00:56:33;;;;;;;10.57;9.53;;;6.50;99.90;;;;;;4992511;28;20924;-66
2021/11/18 00:58:59;;;;;;;9.53;8.60;;;6.70;99.90;;;;;;4993048;28;20840;-66
2021/11/18 01:01:28;;;;;;;9.40;8.37;;;6.80;99.90;;;;;;5003056;28;20438;-66
2021/11/18 01:03:55;;;;;;;8.77;7.87;;;6.80;99.90;;;;;;5002291;28;20174;-66
2021/11/18 01:06:20;;;;;;;9.80;8.57;;;6.80;99.90;;;;;;5000936;28;20573;-66
2021/11/18 01:08:46;;;;;;;8.50;7.60;;;6.80;99.90;;;;;;4992047;28;20541;-66
2021/11/18 01:11:19;;;;;;;8.13;7.43;;;6.80;99.90;;;;;;4990570;28;20303;-66
2021/11/18 01:13:46;;;;;;;9.83;8.50;;;6.80;99.90;;;;;;4991506;28;20799;-66
2021/11/18 01:16:14;;;;;;;8.77;7.87;;;6.80;99.90;;;;;;4992415;28;20434;-66
2021/11/18 01:18:40;;;;;;;9.63;8.70;;;6.80;99.90;;;;;;4992225;28;20447;-66
2021/11/18 01:21:07;;;;;;;9.10;8.23;;;6.90;99.90;;;;;;4992655;28;20426;-66
2021/11/18 01:23:36;;;;;;;9.37;8.37;;;6.90;99.90;;;;;;4992249;28;20172;-66
2021/11/18 01:26:02;;;;;;;8.80;7.77;;;6.80;99.90;;;;;;4993672;28;20437;-66
2021/11/18 01:28:28;;;;;;;8.60;7.70;;;6.80;99.90;;;;;;4993174;28;20434;-66
2021/11/18 01:30:54;;;;;;;10.80;9.70;;;6.80;99.90;;;;;;4991808;28;20435;-66
2021/11/18 01:33:20;;;;;;;8.00;7.37;;;6.80;99.90;;;;;;4992701;28;20180;-66
2021/11/18 01:35:47;;;;;;;9.33;8.50;;;6.90;99.90;;;;;;4996289;28;20548;-66
2021/11/18 01:38:15;;;;;;;7.77;7.07;;;7.00;99.90;;;;;;5005027;28;20926;-66
2021/11/18 01:40:48;;;;;;;9.20;8.20;;;7.00;99.90;;;;;;5002222;28;20503;-66
2021/11/18 01:43:15;;;;;;;9.23;8.33;;;7.10;99.90;;;;;;4995408;28;20438;-66
2021/11/18 01:45:41;;;;;;;8.87;7.97;;;7.20;99.90;;;;;;4995895;28;20469;-66
2021/11/18 01:48:08;;;;;;;9.60;8.63;;;7.20;99.90;;;;;;4995752;28;20445;-66
2021/11/18 01:50:35;;;;;;;8.37;7.57;;;7.30;99.90;;;;;;4995897;28;20466;-66
2021/11/18 01:53:05;;;;;;;8.00;7.20;;;7.30;99.90;;;;;;4995817;28;20492;-66
2021/11/18 01:55:31;;;;;;;7.50;6.80;;;7.30;99.90;;;;;;5000954;28;20457;-66
2021/11/18 01:57:57;;;;;;;7.97;7.27;;;7.30;99.90;;;;;;5012038;28;21151;-66
2021/11/18 02:00:28;;;;;;;9.87;6.63;;;7.30;99.90;;;;;;5001826;28;20458;-66
2021/11/18 02:02:54;;;;;;;10.03;7.80;;;7.40;99.90;;;;;;5003137;28;20167;-66
2021/11/18 02:05:29;;;;;;;9.80;7.67;;;7.40;99.90;;;;;;5011255;28;20442;-66
2021/11/18 02:07:55;;;;;;;11.03;7.27;;;7.40;99.90;;;;;;5002008;28;20430;-66
2021/11/18 02:10:29;;;;;;;7.93;7.23;;;7.40;99.90;;;;;;4996658;28;20461;-66
2021/11/18 02:12:56;;;;;;;7.47;6.70;;;7.20;99.90;;;;;;5008276;28;20459;-66
2021/11/18 02:15:42;;;;;;;8.70;7.80;;;7.20;99.90;;;;;;4995080;28;20845;-66
2021/11/18 02:18:21;;;;;;;7.37;6.67;;;7.10;99.90;;;;;;4987473;28;20497;-66
2021/11/18 02:20:48;;;;;;;8.93;6.60;;;7.10;99.90;;;;;;5004246;28;20821;-66
2021/11/18 02:23:21;;;;;;;7.57;6.87;;;7.20;99.90;;;;;;5002607;28;20494;-66
2021/11/18 02:25:52;;;;;;;7.20;6.60;;;7.30;99.90;;;;;;4995477;28;20427;-66
2021/11/18 02:28:19;;;;;;;7.83;7.10;;;7.30;99.90;;;;;;4996945;28;20426;-66
2021/11/18 02:30:48;;;;;;;7.37;6.67;;;7.40;99.90;;;;;;4998707;28;20805;-66
2021/11/18 02:33:17;;;;;;;7.80;6.40;;;7.50;99.90;;;;;;4997481;28;20927;-66
2021/11/18 02:35:43;;;;;;;12.10;8.30;;;7.40;99.90;;;;;;5000696;28;20461;-66
2021/11/18 02:38:10;;;;;;;8.37;7.43;;;7.30;99.90;;;;;;5000331;28;20466;-66
2021/11/18 02:40:36;;;;;;;6.57;5.97;;;7.40;99.90;;;;;;4995238;28;20458;-66
2021/11/18 02:43:03;;;;;;;6.97;6.37;;;7.40;99.90;;;;;;5002011;28;20433;-66
2021/11/18 02:45:32;;;;;;;8.40;7.60;;;7.50;99.90;;;;;;4994580;28;20774;-66
2021/11/18 02:47:58;;;;;;;8.33;7.20;;;7.50;99.90;;;;;;4994035;28;20427;-66
2021/11/18 02:50:31;;;;;;;8.23;6.23;;;7.60;99.90;;;;;;5001892;28;20461;-66
2021/11/18 02:52:57;;;;;;;8.43;6.80;;;7.60;99.90;;;;;;4999323;28;20426;-66
2021/11/18 02:55:27;;;;;;;6.33;5.73;;;7.60;99.90;;;;;;5007112;28;20461;-66
2021/11/18 02:57:54;;;;;;;7.20;6.50;;;7.60;99.90;;;;;;4995930;28;20164;-66
2021/11/18 03:00:29;;;;;;;10.43;6.43;;;7.50;99.90;;;;;;4991254;28;20447;-66
2021/11/18 03:02:55;;;;;;;7.63;6.83;;;7.40;99.90;;;;;;4985715;28;20434;-66
2021/11/18 03:05:22;;;;;;;7.73;6.97;;;7.50;99.90;;;;;;4994586;28;20958;-66
2021/11/18 03:07:48;;;;;;;7.67;6.73;;;7.30;99.90;;;;;;4994652;28;20432;-66
2021/11/18 03:10:16;;;;;;;8.10;6.97;;;7.40;99.90;;;;;;4995356;28;20450;-66
2021/11/18 03:12:42;;;;;;;9.57;6.43;;;7.40;99.90;;;;;;4999234;28;20441;-66
2021/11/18 03:15:13;;;;;;;8.60;7.33;;;7.50;99.90;;;;;;4992589;28;20463;-66
2021/11/18 03:17:40;;;;;;;8.80;7.70;;;7.60;99.90;;;;;;4992177;28;20429;-66
2021/11/18 03:20:09;;;;;;;8.63;7.13;;;7.60;99.90;;;;;;4994045;28;20818;-66
2021/11/18 03:22:35;;;;;;;9.20;6.93;;;7.60;99.90;;;;;;4995329;28;20422;-66
2021/11/18 03:25:00;;;;;;;12.40;7.60;;;7.60;99.90;;;;;;5000230;28;20800;-66
2021/11/18 03:27:26;;;;;;;7.67;6.97;;;7.60;99.90;;;;;;4999089;28;20176;-66
2021/11/18 03:29:51;;;;;;;8.53;6.50;;;7.70;99.90;;;;;;5003272;28;20306;-66
2021/11/18 03:32:17;;;;;;;7.83;7.07;;;7.60;99.90;;;;;;5002422;28;20171;-66
2021/11/18 03:34:43;;;;;;;8.10;7.30;;;7.50;99.90;;;;;;4999377;28;20567;-66
2021/11/18 03:37:09;;;;;;;9.43;8.00;;;7.40;99.90;;;;;;4993653;28;20233;-66
2021/11/18 03:39:35;;;;;;;9.33;7.90;;;7.40;99.90;;;;;;5000670;28;20210;-66
2021/11/18 03:42:04;;;;;;;9.70;8.57;;;7.50;99.90;;;;;;5003060;28;20514;-66
2021/11/18 03:44:30;;;;;;;8.77;7.97;;;7.60;99.90;;;;;;4980865;28;20552;-66
2021/11/18 03:47:04;;;;;;;9.13;8.23;;;7.60;99.90;;;;;;5003074;28;20430;-66
2021/11/18 03:49:29;;;;;;;8.37;7.10;;;7.60;99.90;;;;;;4999391;28;20576;-66
2021/11/18 03:51:58;;;;;;;8.40;7.70;;;7.60;99.90;;;;;;4997513;28;20439;-66
2021/11/18 03:54:26;;;;;;;10.07;8.60;;;7.50;99.90;;;;;;4993306;28;20203;-66
2021/11/18 03:56:51;;;;;;;10.30;8.10;;;7.30;99.90;;;;;;5002886;28;20454;-66
2021/11/18 03:59:21;;;;;;;13.70;9.20;;;7.20;99.90;;;;;;5002856;28;20536;-66
2021/11/18 04:01:48;;;;;;;9.03;8.23;;;7.20;99.90;;;;;;4994179;28;20178;-66
2021/11/18 04:04:19;;;;;;;11.10;10.00;;;7.40;99.90;;;;;;4995768;28;20532;-66
2021/11/18 04:06:45;;;;;;;8.47;7.43;;;7.40;99.90;;;;;;4996187;28;20438;-66
2021/11/18 04:09:12;;;;;;;10.03;9.03;;;7.50;99.90;;;;;;4991879;28;20458;-66
2021/11/18 04:11:39;;;;;;;10.13;9.07;;;7.60;99.90;;;;;;4993053;28;20501;-66
2021/11/18 04:14:05;;;;;;;9.67;8.63;;;7.70;99.90;;;;;;4992926;28;20469;-66
2021/11/18 04:16:30;;;;;;;10.63;9.53;;;7.60;99.90;;;;;;4993090;28;20437;-66
2021/11/18 04:18:57;;;;;;;9.40;8.50;;;7.60;99.90;;;;;;4992324;28;20827;-66
2021/11/18 04:21:23;;;;;;;9.67;7.67;;;7.70;99.90;;;;;;5004960;28;20226;-66
2021/11/18 04:23:48;;;;;;;9.40;8.50;;;7.70;99.90;;;;;;5003378;28;20435;-66
2021/11/18 04:26:14;;;;;;;9.83;8.77;;;7.70;99.90;;;;;;4995432;28;20830;-66
2021/11/18 04:28:41;;;;;;;12.10;8.70;;;7.80;99.90;;;;;;4997494;28;20203;-66
2021/11/18 04:31:15;;;;;;;9.40;8.50;;;7.80;99.90;;;;;;4990748;28;20526;-66
2021/11/18 04:33:41;;;;;;;9.63;8.50;;;7.80;99.90;;;;;;4993214;28;20842;-66
2021/11/18 04:36:09;;;;;;;11.37;10.27;;;7.80;99.90;;;;;;4992562;28;20458;-66
2021/11/18 04:38:36;;;;;;;9.97;8.97;;;7.80;99.90;;;;;;4992961;28;20203;-67
2021/11/18 04:41:03;;;;;;;11.40;9.97;;;7.70;99.90;;;;;;4993499;28;20947;-67
2021/11/18 04:43:29;;;;;;;10.27;9.37;;;7.70;99.90;;;;;;4993272;28;20423;-67
2021/11/18 04:45:55;;;;;;;12.00;9.57;;;7.70;99.90;;;;;;4998321;28;20495;-67
2021/11/18 04:48:21;;;;;;;11.80;10.53;;;7.70;99.90;;;;;;4997474;28;20434;-67
2021/11/18 04:50:48;;;;;;;13.60;10.07;;;7.70;99.90;;;;;;4992557;28;20439;-67
2021/11/18 04:53:14;;;;;;;10.77;9.63;;;7.70;99.90;;;;;;4993617;28;20549;-67
2021/11/18 04:55:40;;;;;;;13.47;9.87;;;7.80;99.90;;;;;;5003635;28;20486;-67
2021/11/18 04:58:07;;;;;;;10.03;9.03;;;7.80;99.90;;;;;;4992110;28;20795;-67
2021/11/18 05:00:38;;;;;;;9.43;8.53;;;7.80;99.90;;;;;;4995082;28;20467;-67
2021/11/18 05:03:04;;;;;;;12.00;9.03;;;7.80;99.90;;;;;;4994885;28;20434;-67
2021/11/18 05:05:30;;;;;;;10.00;9.00;;;7.80;99.90;;;;;;4993525;28;20454;-66
2021/11/18 05:07:56;;;;;;;13.93;9.50;;;7.80;99.90;;;;;;4994366;28;21002;-67
2021/11/18 05:10:23;;;;;;;11.07;9.97;;;7.80;99.90;;;;;;4992128;28;20486;-67
2021/11/18 05:12:49;;;;;;;12.97;10.87;;;7.80;99.90;;;;;;4992992;28;20187;-67
2021/11/18 05:15:17;;;;;;;15.57;9.17;;;7.80;99.90;;;;;;4993240;28;20524;-67
2021/11/18 05:17:45;;;;;;;12.10;10.00;;;7.80;99.90;;;;;;4996201;28;20466;-67
2021/11/18 05:20:11;;;;;;;14.73;12.30;;;7.90;99.90;;;;;;4992371;28;20485;-66
2021/11/18 05:22:38;;;;;;;11.20;10.00;;;7.90;99.90;;;;;;4992928;28;20445;-66
2021/11/18 05:25:05;;;;;;;10.83;9.83;;;7.80;99.90;;;;;;4992053;28;20806;-66
2021/11/18 05:27:31;;;;;;;12.90;9.83;;;7.80;99.90;;;;;;4992253;28;20793;-66
2021/11/18 05:29:56;;;;;;;11.70;10.53;;;7.80;99.90;;;;;;4996029;28;20457;-66
2021/11/18 05:32:22;;;;;;;11.30;10.20;;;7.80;99.90;;;;;;4993134;28;20595;-66
2021/11/18 05:34:48;;;;;;;10.20;9.20;;;7.80;99.90;;;;;;5000861;28;20202;-66
2021/11/18 05:37:13;;;;;;;10.20;9.20;;;7.70;99.90;;;;;;5001259;28;20538;-66
2021/11/18 05:39:39;;;;;;;12.10;9.33;;;7.70;99.90;;;;;;4994547;28;20297;-66
2021/11/18 05:42:05;;;;;;;9.93;8.73;;;7.70;99.90;;;;;;4992007;28;20547;-66
2021/11/18 05:44:31;;;;;;;12.03;10.10;;;7.70;99.90;;;;;;4996391;28;20186;-66
2021/11/18 05:46:57;;;;;;;10.60;9.60;;;7.80;99.90;;;;;;4993352;28;20198;-66
2021/11/18 05:49:22;;;;;;;10.17;9.10;;;7.80;99.90;;;;;;4992731;28;20454;-67
2021/11/18 05:51:48;;;;;;;9.83;8.83;;;7.80;99.90;;;;;;5001570;28;20440;-67
2021/11/18 05:54:15;;;;;;;10.80;9.70;;;7.80;99.90;;;;;;4998760;28;20242;-66
2021/11/18 05:56:43;;;;;;;11.50;10.07;;;7.80;99.90;;;;;;4991873;28;20772;-66
2021/11/18 05:59:09;;;;;;;12.73;10.30;;;7.80;99.90;;;;;;5000215;28;20451;-66
2021/11/18 06:01:35;;;;;;;10.13;8.80;;;7.80;99.90;;;;;;4989687;28;20435;-66
2021/11/18 06:04:01;;;;;;;10.17;9.17;;;7.80;99.90;;;;;;4992084;28;20795;-66
2021/11/18 06:06:27;;;;;;;12.00;10.90;;;7.80;99.90;;;;;;4998089;28;20433;-66
2021/11/18 06:08:53;;;;;;;11.33;10.23;;;7.80;99.90;;;;;;4992437;28;20451;-66
2021/11/18 06:11:19;;;;;;;12.30;11.00;;;7.80;99.90;;;;;;4979015;28;20795;-66
2021/11/18 06:13:50;;;;;;;11.50;9.13;;;7.90;99.90;;;;;;4991789;28;20515;-66
2021/11/18 06:16:16;;;;;;;11.23;10.13;;;7.80;99.90;;;;;;4999779;28;20437;-66
2021/11/18 06:18:42;;;;;;;10.80;9.70;;;7.80;99.90;;;;;;4994347;28;20935;-66
2021/11/18 06:21:07;;;;;;;18.07;14.30;;;7.80;99.90;;;;;;4994032;28;20437;-66
2021/11/18 06:23:33;;;;;;;18.47;15.33;;;7.70;99.90;;;;;;4996085;28;20176;-66
2021/11/18 06:25:59;;;;;;;13.33;11.33;;;7.50;99.90;;;;;;4995772;28;20186;-66
2021/11/18 06:28:24;;;;;;;11.47;10.30;;;7.40;99.90;;;;;;4989627;28;20234;-66
2021/11/18 06:30:54;;;;;;;12.57;10.90;;;7.30;99.90;;;;;;4993177;28;20517;-66
2021/11/18 06:33:21;;;;;;;11.30;10.07;;;7.20;99.90;;;;;;4995113;28;20184;-66
2021/11/18 06:35:47;;;;;;;13.23;10.13;;;7.30;99.90;;;;;;5004250;28;20466;-66
2021/11/18 06:38:13;;;;;;;9.77;8.73;;;7.40;99.90;;;;;;4994269;28;20430;-66
2021/11/18 06:40:39;;;;;;;12.20;9.50;;;7.50;99.90;;;;;;5007450;28;20446;-66
2021/11/18 06:43:05;;;;;;;10.70;9.13;;;7.60;99.90;;;;;;4994780;28;20179;-66
2021/11/18 06:45:32;;;;;;;10.33;8.87;;;7.70;99.90;;;;;;4994466;28;20262;-66
2021/11/18 06:47:58;;;;;;;13.27;9.97;;;7.80;99.90;;;;;;4994428;28;20470;-66
2021/11/18 06:50:24;;;;;;;9.83;8.80;;;7.80;99.90;;;;;;4994363;28;20490;-67
2021/11/18 06:52:49;;;;;;;12.70;9.27;;;7.80;99.90;;;;;;4994577;28;20179;-66
2021/11/18 06:55:15;;;;;;;11.57;9.60;;;7.90;99.90;;;;;;4994538;28;20196;-66
2021/11/18 06:57:41;;;;;;;13.80;10.50;;;7.80;99.90;;;;;;4994066;28;20180;-66
2021/11/18 07:00:09;;;;;;;11.70;9.90;;;7.70;99.90;;;;;;4994054;28;20450;-66
2021/11/18 07:02:34;;;;;;;12.27;9.97;;;7.70;99.90;;;;;;4995145;28;20234;-67
2021/11/18 07:05:00;;;;;;;12.40;9.70;;;7.70;99.90;;;;;;4993999;28;22172;-66
2021/11/18 07:07:25;;;;;;;11.63;8.80;;;7.70;99.90;;;;;;4993668;28;20183;-66
2021/11/18 07:09:51;;;;;;;11.70;9.70;;;7.80;99.90;;;;;;4996385;28;20204;-66
2021/11/18 07:12:19;;;;;;;12.73;10.30;;;7.90;99.90;;;;;;4993753;28;20182;-66
2021/11/18 07:14:46;;;;;;;24.83;14.53;;;7.90;99.90;;;;;;4993931;28;20203;-66
2021/11/18 07:17:12;;;;;;;19.53;13.87;;;7.90;99.90;;;;;;4993445;28;20435;-66
2021/11/18 07:19:38;;;;;;;19.37;11.90;;;7.90;99.90;;;;;;4993438;28;20528;-66
2021/11/18 07:22:04;;;;;;;19.20;12.00;;;7.80;99.90;;;;;;4997792;28;20171;-66
2021/11/18 07:24:30;;;;;;;15.83;10.47;;;7.70;99.90;;;;;;4993558;28;20794;-66
2021/11/18 07:26:56;;;;;;;18.83;12.77;;;7.60;99.90;;;;;;4993396;28;20519;-66
2021/11/18 07:29:23;;;;;;;25.40;12.00;;;7.50;99.90;;;;;;4990332;28;21003;-66
2021/11/18 07:31:49;;;;;;;23.03;13.60;;;7.50;99.90;;;;;;4994627;28;20194;-67
2021/11/18 07:34:16;;;;;;;19.70;12.00;;;7.50;99.90;;;;;;4990289;28;20514;-67
2021/11/18 07:36:42;;;;;;;25.07;14.57;;;7.50;99.90;;;;;;4986296;28;20477;-67
2021/11/18 07:39:08;;;;;;;33.87;17.83;;;7.50;99.90;;;;;;4993282;28;20466;-66
2021/11/18 07:41:33;;;;;;;28.53;13.43;;;7.50;99.90;;;;;;4993313;28;20423;-67
2021/11/18 07:43:59;;;;;;;19.53;12.50;;;7.60;99.90;;;;;;4991811;28;20183;-67
2021/11/18 07:46:25;;;;;;;30.50;21.80;;;7.60;99.90;;;;;;4988027;28;20648;-67
2021/11/18 07:48:51;;;;;;;24.73;14.00;;;7.60;99.90;;;;;;4982923;28;20298;-67
2021/11/18 07:51:20;;;;;;;20.63;13.97;;;7.60;99.90;;;;;;4981806;28;21378;-67
2021/11/18 07:53:47;;;;;;;18.60;13.17;;;7.70;99.90;;;;;;4963098;28;20183;-67
2021/11/18 07:56:15;;;;;;;21.07;12.37;;;7.60;99.90;;;;;;4990706;28;20458;-66
2021/11/18 07:58:41;;;;;;;22.50;14.67;;;7.60;99.90;;;;;;4986669;28;20951;-65
2021/11/18 08:01:07;;;;;;;25.17;13.90;;;7.70;99.90;;;;;;4989038;28;20492;-65
2021/11/18 08:03:33;;;;;;;25.10;13.57;;;7.70;99.90;;;;;;4990707;28;20426;-65
2021/11/18 08:06:00;;;;;;;24.23;14.80;;;7.60;99.90;;;;;;5005832;28;20266;-65
2021/11/18 08:08:26;;;;;;;22.10;14.37;;;7.40;99.90;;;;;;5009951;28;20477;-65
2021/11/18 08:10:52;;;;;;;26.80;14.50;;;7.40;99.90;;;;;;4986468;28;20957;-66
2021/11/18 08:13:18;;;;;;;22.53;15.50;;;7.30;99.90;;;;;;4991516;28;20274;-65
2021/11/18 08:15:44;;;;;;;28.93;15.60;;;7.30;99.90;;;;;;4998858;28;20561;-66
2021/11/18 08:18:10;;;;;;;30.10;16.63;;;7.40;99.90;;;;;;4990769;28;20186;-65
2021/11/18 08:20:35;;;;;;;29.60;16.50;;;7.50;99.90;;;;;;4990364;28;20454;-66
2021/11/18 08:23:02;;;;;;;25.80;14.93;;;7.60;99.90;;;;;;4988793;28;20191;-65
2021/11/18 08:25:30;;;;;;;25.37;15.40;;;7.50;99.90;;;;;;4992002;28;20206;-66
2021/11/18 08:27:56;;;;;;;28.57;16.67;;;7.40;99.90;;;;;;4993253;28;20435;-66
2021/11/18 08:30:24;;;;;;;28.07;15.70;;;7.40;99.90;;;;;;4988419;28;20458;-66
2021/11/18 08:32:54;;;;;;;26.47;15.40;;;7.50;99.90;;;;;;4989620;28;20190;-65
2021/11/18 08:35:23;;;;;;;23.77;14.57;;;7.40;99.90;;;;;;4993739;28;20457;-66
2021/11/18 08:37:50;;;;;;;24.50;16.30;;;7.50;99.90;;;;;;4993678;28;20529;-66
2021/11/18 08:40:17;;;;;;;27.13;15.20;;;7.50;99.90;;;;;;4991610;28;20485;-66
2021/11/18 08:42:46;;;;;;;27.90;15.07;;;7.70;99.90;;;;;;4986235;28;20436;-66
2021/11/18 08:45:12;;;;;;;25.57;14.80;;;7.80;99.90;;;;;;4990251;28;20937;-66
2021/11/18 08:47:40;;;;;;;28.93;17.40;;;7.90;99.90;;;;;;4991849;28;20453;-66
2021/11/18 08:50:10;;;;;;;26.10;16.47;;;7.70;99.90;;;;;;4998541;28;20459;-66
2021/11/18 08:52:37;;;;;;;25.00;17.63;;;7.60;99.90;;;;;;4988722;28;20453;-65
2021/11/18 08:55:07;;;;;;;24.70;17.73;;;7.60;99.90;;;;;;4991757;28;20541;-66
2021/11/18 08:57:32;;;;;;;25.87;15.30;;;7.70;99.90;;;;;;4992860;28;20506;-65
2021/11/18 08:59:58;;;;;;;28.37;15.67;;;7.90;99.90;;;;;;4997327;28;20536;-66
2021/11/18 09:02:27;;;;;;;23.57;14.87;;;7.90;99.90;;;;;;4991950;28;20175;-66
2021/11/18 09:04:54;;;;;;;24.00;13.67;;;8.00;99.90;;;;;;4990857;28;20207;-66
2021/11/18 09:07:19;;;;;;;24.07;14.90;;;8.10;99.90;;;;;;4991686;28;20438;-66
2021/11/18 09:09:45;;;;;;;18.27;12.60;;;8.00;99.90;;;;;;4991618;28;20972;-66
2021/11/18 09:12:11;;;;;;;25.90;15.67;;;8.10;99.90;;;;;;4989155;28;20242;-66
2021/11/18 09:14:37;;;;;;;23.03;14.37;;;8.30;99.90;;;;;;4992604;28;20199;-66
2021/11/18 09:17:05;;;;;;;18.10;12.80;;;8.50;99.90;;;;;;4991684;28;20179;-65
2021/11/18 09:19:34;;;;;;;23.43;13.63;;;8.70;99.90;;;;;;4991597;28;20951;-65
2021/11/18 09:22:03;;;;;;;19.90;13.93;;;8.90;99.90;;;;;;4991556;28;20528;-65
2021/11/18 09:24:33;;;;;;;24.07;15.17;;;9.00;99.90;;;;;;4991759;28;20825;-65
2021/11/18 09:27:22;;;;;;;23.20;14.33;;;9.00;99.90;;;;;;4992022;28;20438;-66
2021/11/18 09:29:48;;;;;;;22.03;15.67;;;9.10;99.90;;;;;;4987259;28;20459;-66
2021/11/18 09:32:15;;;;;;;26.47;17.40;;;9.20;99.90;;;;;;4990139;28;20936;-65
2021/11/18 09:34:41;;;;;;;22.80;15.10;;;9.20;99.90;;;;;;4993192;28;20960;-65
2021/11/18 09:37:07;;;;;;;19.27;12.97;;;9.20;99.90;;;;;;4991797;28;20430;-65
2021/11/18 09:39:33;;;;;;;24.17;14.73;;;9.20;99.90;;;;;;4990405;28;20540;-65
2021/11/18 09:42:04;;;;;;;20.13;13.97;;;9.30;99.90;;;;;;4980375;28;20494;-66
2021/11/18 09:45:02;;;;;;;18.57;13.87;;;9.40;99.90;;;;;;4991365;28;20188;-65
2021/11/18 09:47:49;;;;;;;20.03;13.03;;;9.50;99.90;;;;;;4993708;28;20442;-65
2021/11/18 09:50:56;;;;;;;20.17;12.80;;;9.60;99.90;;;;;;4988331;28;20454;-65
2021/11/18 09:53:45;;;;;;;19.80;13.23;;;9.50;99.90;;;;;;4978257;28;20512;-66
2021/11/18 09:56:13;;;;;;;19.67;14.87;;;9.50;99.90;;;;;;4992491;28;20470;-65
2021/11/18 09:59:00;;;;;;;18.60;13.17;;;9.50;99.90;;;;;;4996862;28;20927;-65
2021/11/18 10:01:37;;;;;;;19.80;13.63;;;9.70;99.90;;;;;;4988640;28;20442;-65
2021/11/18 10:04:21;;;;;;;19.23;12.50;;;9.80;99.90;;;;;;4991781;28;20438;-65
2021/11/18 10:06:53;;;;;;;18.70;11.87;;;9.60;99.90;;;;;;4992136;28;20474;-65
2021/11/18 10:09:25;;;;;;;19.80;13.47;;;9.50;99.90;;;;;;4992378;28;20493;-65
2021/11/18 10:11:53;;;;;;;19.63;13.27;;;9.60;99.90;;;;;;4988601;28;20462;-65
2021/11/18 10:14:55;;;;;;;16.47;13.70;;;9.60;99.90;;;;;;4990103;28;20458;-65
2021/11/18 10:17:32;;;;;;;19.03;11.90;;;9.80;99.90;;;;;;4991615;28;20442;-66
2021/11/18 10:20:23;;;;;;;13.87;12.10;;;10.30;99.90;;;;;;4991376;28;20461;-65
2021/11/18 10:23:14;;;;;;;18.10;13.17;;;11.00;99.90;;;;;;4988173;28;20435;-65
2021/11/18 10:25:49;;;;;;;15.80;12.00;;;11.30;99.90;;;;;;4986448;28;20434;-65
2021/11/18 10:28:21;;;;;;;14.47;11.80;;;11.50;99.90;;;;;;4997369;28;20442;-66
2021/11/18 10:31:17;;;;;;;12.70;11.40;;;11.60;99.90;;;;;;4999430;28;20493;-66
2021/11/18 10:33:45;;;;;;;17.47;12.50;;;11.00;99.90;;;;;;4990379;28;20474;-65
2021/11/18 10:36:33;;;;;;;11.60;9.57;;;10.80;99.90;;;;;;4994913;28;20473;-65
2021/11/18 10:39:41;;;;;;;12.60;11.30;;;10.50;99.90;;;;;;4992985;28;20474;-65
2021/11/18 10:42:30;;;;;;;15.10;12.20;;;10.80;99.90;;;;;;4949435;29;20444;-66
2021/11/18 10:45:07;;;;;;;15.33;11.07;;;11.10;99.90;;;;;;4989496;28;20436;-65
2021/11/18 10:47:51;;;;;;;13.50;11.47;;;11.50;99.90;;;;;;4974898;28;20853;-66
2021/11/18 10:50:22;;;;;;;15.27;10.30;;;12.00;99.90;;;;;;4984824;28;20481;-66
2021/11/18 10:53:03;;;;;;;12.60;9.53;;;12.50;99.90;;;;;;4990885;28;20427;-66
2021/11/18 10:55:38;;;;;;;13.27;11.03;;;12.80;99.90;;;;;;4994411;28;20462;-65
2021/11/18 10:58:10;;;;;;;15.83;10.90;;;13.50;99.90;;;;;;4994413;28;20434;-65
2021/11/18 11:00:41;;;;;;;13.70;10.67;;;14.00;99.90;;;;;;4994535;28;20446;-66
2021/11/18 11:03:21;;;;;;;12.03;10.00;;;14.10;99.90;;;;;;4991170;28;20426;-66
2021/11/18 11:06:25;;;;;;;12.57;9.33;;;13.60;99.90;;;;;;4992702;28;20434;-65
2021/11/18 11:09:12;;;;;;;10.57;8.90;;;12.60;99.90;;;;;;4974599;28;20446;-66
2021/11/18 11:11:56;;;;;;;17.33;14.40;;;12.30;99.90;;;;;;4991017;28;20437;-66
2021/11/18 11:14:53;;;;;;;12.17;10.10;;;11.90;99.90;;;;;;4994092;28;20460;-66
2021/11/18 11:17:45;;;;;;;10.10;7.47;;;11.90;99.90;;;;;;4992503;28;20910;-65
2021/11/18 11:20:13;;;;;;;11.10;9.93;;;12.00;99.90;;;;;;4991980;28;20509;-65
2021/11/18 11:23:05;;;;;;;11.83;9.77;;;11.30;99.90;;;;;;4987114;28;20812;-65
2021/11/18 11:25:53;;;;;;;8.13;7.33;;;10.80;99.90;;;;;;4998108;28;20469;-67
2021/11/18 11:28:54;;;;;;;10.60;7.30;;;10.40;99.90;;;;;;5000660;28;20466;-66
2021/11/18 11:31:28;;;;;;;7.50;6.57;;;10.40;99.90;;;;;;4990571;28;20438;-65
2021/11/18 11:33:54;;;;;;;7.93;6.13;;;10.40;99.90;;;;;;4993432;28;20489;-65
2021/11/18 11:36:23;;;;;;;8.67;7.27;;;10.40;99.90;;;;;;4992668;28;20947;-65
2021/11/18 11:38:54;;;;;;;6.50;5.70;;;10.40;99.90;;;;;;4993181;28;20298;-66
2021/11/18 11:41:47;;;;;;;9.97;7.00;;;10.50;99.90;;;;;;4991817;28;20435;-66
2021/11/18 11:44:42;;;;;;;8.10;6.90;;;10.70;99.90;;;;;;4990344;28;20426;-66
2021/11/18 11:47:29;;;;;;;7.70;6.90;;;10.70;99.90;;;;;;4993752;28;20442;-65
2021/11/18 11:50:02;;;;;;;8.97;7.27;;;10.90;99.90;;;;;;4990237;28;20540;-66
2021/11/18 11:52:28;;;;;;;10.87;8.57;;;10.80;99.90;;;;;;4988697;28;20504;-66
2021/11/18 11:55:16;;;;;;;13.17;9.50;;;10.90;99.90;;;;;;4992666;28;20543;-65
2021/11/18 11:57:59;;;;;;;8.70;7.53;;;10.90;99.90;;;;;;4991943;28;20522;-66
2021/11/18 12:00:57;;;;;;;8.17;7.27;;;11.00;99.90;;;;;;4992528;28;20841;-65
2021/11/18 12:03:44;;;;;;;9.07;8.17;;;11.00;99.90;;;;;;4989090;28;20447;-65
2021/11/18 12:06:21;;;;;;;10.20;7.10;;;11.20;99.90;;;;;;4991270;28;20524;-66
2021/11/18 12:08:53;;;;;;;9.30;7.20;;;11.10;99.90;;;;;;4991940;28;20462;-66
2021/11/18 12:11:38;;;;;;;8.17;6.43;;;11.10;99.90;;;;;;4989718;28;21975;-67
2021/11/18 12:14:04;;;;;;;9.00;7.50;;;11.20;99.90;;;;;;4991711;28;20438;-66
2021/11/18 12:16:46;;;;;;;10.13;9.20;;;11.00;99.90;;;;;;4986521;28;20434;-66
2021/11/18 12:19:39;;;;;;;12.37;9.30;;;11.00;99.90;;;;;;4989708;28;20214;-66
2021/11/18 12:22:39;;;;;;;10.60;9.53;;;10.80;99.90;;;;;;4987952;28;20434;-65
2021/11/18 12:25:14;;;;;;;10.53;9.53;;;10.60;99.90;;;;;;4984474;28;20469;-66
2021/11/18 12:27:49;;;;;;;9.30;8.27;;;10.50;99.90;;;;;;4991316;28;20963;-65
2021/11/18 12:30:23;;;;;;;12.03;9.73;;;10.40;99.90;;;;;;4989995;28;20457;-66
2021/11/18 12:33:26;;;;;;;11.97;10.57;;;10.40;99.90;;;;;;4990352;28;20438;-66
2021/11/18 12:36:10;;;;;;;12.77;10.77;;;10.30;99.90;;;;;;4968635;28;20474;-65
2021/11/18 12:38:54;;;;;;;12.70;8.93;;;10.60;99.90;;;;;;4990847;28;20855;-65
2021/11/18 12:41:38;;;;;;;11.07;9.20;;;10.90;99.90;;;;;;4983332;28;20438;-66
2021/11/18 12:44:31;;;;;;;13.43;9.67;;;10.70;99.90;;;;;;4991409;28;20995;-67
2021/11/18 12:47:21;;;;;;;12.90;10.03;;;10.70;99.90;;;;;;4991879;28;20798;-66
2021/11/18 12:49:47;;;;;;;10.87;9.73;;;10.60;99.90;;;;;;4990823;28;20461;-66
2021/11/18 12:52:31;;;;;;;9.80;8.80;;;10.50;99.90;;;;;;4992629;28;20437;-66
2021/11/18 12:55:15;;;;;;;9.53;8.60;;;10.40;99.90;;;;;;4996156;28;20465;-66
2021/11/18 12:57:41;;;;;;;11.50;8.60;;;10.40;99.90;;;;;;4997916;28;20431;-66
2021/11/18 13:00:20;;;;;;;10.17;9.20;;;10.40;99.90;;;;;;4996494;28;20454;-66
2021/11/18 13:03:06;;;;;;;9.90;8.47;;;10.30;99.90;;;;;;4992169;28;20542;-66